createdAt,value
2022-09-04T00:00:27.884Z,2.03
2022-09-04T00:03:10.698Z,2.00
2022-09-04T00:05:41.253Z,1.92
2022-09-04T00:08:11.811Z,1.70
2022-09-04T00:10:51.277Z,2.30
2022-09-04T00:13:24.327Z,2.80
2022-09-04T00:15:55.186Z,2.60
2022-09-04T00:18:25.511Z,2.80
2022-09-04T00:20:58.623Z,3.10
2022-09-04T00:23:31.807Z,2.40
2022-09-04T00:26:04.082Z,2.85
2022-09-04T00:28:34.290Z,3.65
2022-09-04T00:31:21.848Z,2.85
2022-09-04T00:33:54.845Z,2.90
2022-09-04T00:36:23.611Z,2.83
2022-09-04T00:38:55.074Z,2.90
2022-09-04T00:41:30.990Z,3.00
2022-09-04T00:44:04.230Z,2.80
2022-09-04T00:46:51.939Z,2.53
2022-09-04T00:49:21.890Z,2.80
2022-09-04T00:52:06.155Z,2.78
2022-09-04T00:54:48.824Z,3.17
2022-09-04T00:57:34.921Z,3.03
2022-09-04T01:00:15.343Z,2.90
2022-09-04T01:03:06.020Z,2.95
2022-09-04T01:05:33.828Z,2.50
2022-09-04T01:08:03.189Z,2.72
2022-09-04T01:10:30.576Z,2.58
2022-09-04T01:13:03.643Z,2.50
2022-09-04T01:15:49.318Z,2.35
2022-09-04T01:18:22.897Z,2.28
2022-09-04T01:20:57.481Z,2.40
2022-09-04T01:23:33.670Z,2.53
2022-09-04T01:26:23.613Z,2.40
2022-09-04T01:29:10.611Z,2.50
2022-09-04T01:31:47.361Z,2.03
2022-09-04T01:34:28.512Z,2.42
2022-09-04T01:37:14.442Z,2.33
2022-09-04T01:39:44.067Z,2.70
2022-09-04T01:42:33.240Z,2.30
2022-09-04T01:45:00.438Z,2.45
2022-09-04T01:47:47.999Z,2.60
2022-09-04T01:50:25.406Z,2.63
2022-09-04T01:53:01.610Z,2.25
2022-09-04T01:55:38.308Z,2.33
2022-09-04T01:58:05.451Z,2.42
2022-09-04T02:00:35.558Z,2.30
2022-09-04T02:03:11.213Z,2.78
2022-09-04T02:05:50.144Z,2.40
2022-09-04T02:08:26.437Z,2.58
2022-09-04T02:11:12.587Z,2.88
2022-09-04T02:13:40.290Z,3.08
2022-09-04T02:16:22.203Z,3.10
2022-09-04T02:19:07.344Z,2.63
2022-09-04T02:21:37.813Z,2.70
2022-09-04T02:24:07.887Z,2.40
2022-09-04T02:26:42.355Z,2.65
2022-09-04T02:29:09.481Z,3.05
2022-09-04T02:31:39.683Z,2.50
2022-09-04T02:34:06.827Z,2.75
2022-09-04T02:36:41.869Z,2.40
2022-09-04T02:39:15.106Z,2.60
2022-09-04T02:41:50.843Z,2.58
2022-09-04T02:44:28.050Z,2.30
2022-09-04T02:46:58.240Z,2.72
2022-09-04T02:49:29.072Z,2.58
2022-09-04T02:52:04.569Z,2.00
2022-09-04T02:54:40.798Z,1.98
2022-09-04T02:57:15.254Z,2.10
2022-09-04T02:59:48.298Z,2.10
2022-09-04T03:02:38.457Z,1.83
2022-09-04T03:05:26.860Z,1.92
2022-09-04T03:08:07.726Z,2.00
2022-09-04T03:10:43.385Z,2.10
2022-09-04T03:13:22.735Z,2.08
2022-09-04T03:16:03.915Z,2.03
2022-09-04T03:18:33.726Z,2.00
2022-09-04T03:21:06.405Z,2.20
2022-09-04T03:26:14.689Z,1.88
2022-09-04T03:28:47.202Z,1.95
2022-09-04T03:31:18.741Z,2.40
2022-09-04T03:33:49.200Z,2.60
2022-09-04T03:36:21.612Z,2.50
2022-09-04T03:39:04.133Z,2.50
2022-09-04T03:41:40.587Z,2.10
2022-09-04T03:44:22.991Z,2.40
2022-09-04T03:46:53.206Z,2.63
2022-09-04T03:49:34.264Z,2.42
2022-09-04T03:52:20.994Z,3.35
2022-09-04T03:54:48.139Z,2.80
2022-09-04T03:57:24.599Z,2.60
2022-09-04T04:00:03.946Z,2.08
2022-09-04T04:02:40.273Z,2.38
2022-09-04T04:05:27.546Z,2.50
2022-09-04T04:08:12.981Z,2.50
2022-09-04T04:10:46.327Z,2.80
2022-09-04T04:13:33.316Z,3.33
2022-09-04T04:16:03.506Z,3.05
2022-09-04T04:18:49.229Z,2.53
2022-09-04T04:21:19.376Z,3.53
2022-09-04T04:23:49.546Z,3.15
2022-09-04T04:26:43.048Z,3.17
2022-09-04T04:29:26.790Z,3.40
2022-09-04T04:32:13.677Z,2.65
2022-09-04T04:35:05.655Z,3.50
2022-09-04T04:37:43.451Z,3.42
2022-09-04T04:40:15.274Z,3.75
2022-09-04T04:43:01.563Z,2.67
2022-09-04T04:45:52.205Z,3.42
2022-09-04T04:48:28.846Z,3.78
2022-09-04T04:51:02.214Z,3.67
2022-09-04T04:53:36.830Z,3.53
2022-09-04T04:56:07.354Z,3.58
2022-09-04T04:58:44.850Z,3.28
2022-09-04T05:01:24.137Z,3.80
2022-09-04T05:04:11.173Z,3.10
2022-09-04T05:06:41.450Z,3.40
2022-09-04T05:09:23.014Z,3.00
2022-09-04T05:12:00.297Z,2.50
2022-09-04T05:14:27.439Z,3.00
2022-09-04T05:17:00.360Z,3.15
2022-09-04T05:19:33.350Z,3.03
2022-09-04T05:22:05.982Z,3.22
2022-09-04T05:24:39.579Z,3.03
2022-09-04T05:27:33.104Z,2.97
2022-09-04T05:30:13.383Z,2.97
2022-09-04T05:32:45.934Z,2.75
2022-09-04T05:35:35.357Z,2.75
2022-09-04T05:38:08.776Z,2.78
2022-09-04T05:40:47.929Z,2.90
2022-09-04T05:43:15.029Z,2.35
2022-09-04T05:45:49.615Z,2.90
2022-09-04T05:48:28.393Z,2.58
2022-09-04T05:51:05.760Z,2.50
2022-09-04T05:53:42.405Z,2.60
2022-09-04T05:56:15.395Z,2.80
2022-09-04T05:59:01.201Z,2.97
2022-09-04T06:01:28.350Z,2.70
2022-09-04T06:04:34.334Z,2.75
2022-09-04T06:07:13.364Z,2.75
2022-09-04T06:09:53.019Z,2.65
2022-09-04T06:12:38.734Z,3.00
2022-09-04T06:15:12.002Z,2.63
2022-09-04T06:17:39.142Z,2.83
2022-09-04T06:20:24.686Z,3.10
2022-09-04T06:22:55.584Z,2.15
2022-09-04T06:25:26.508Z,2.93
2022-09-04T06:28:19.767Z,2.60
2022-09-04T06:31:10.336Z,2.47
2022-09-04T06:34:03.943Z,2.17
2022-09-04T06:36:49.766Z,2.60
2022-09-04T06:39:26.077Z,2.75
2022-09-04T06:42:05.444Z,2.60
2022-09-04T06:44:39.754Z,2.63
2022-09-04T06:47:10.021Z,2.72
2022-09-04T06:49:49.095Z,2.97
2022-09-04T06:52:18.638Z,3.20
2022-09-04T06:54:54.649Z,2.45
2022-09-04T06:57:35.267Z,2.58
2022-09-04T07:00:09.825Z,2.53
2022-09-04T07:02:37.046Z,2.80
2022-09-04T07:05:10.032Z,3.60
2022-09-04T07:07:56.014Z,3.20
2022-09-04T07:10:26.241Z,3.38
2022-09-04T07:13:06.233Z,3.45
2022-09-04T07:15:39.330Z,3.58
2022-09-04T07:18:24.833Z,3.85
2022-09-04T07:21:15.430Z,3.92
2022-09-04T07:23:48.279Z,3.10
2022-09-04T07:26:21.287Z,3.53
2022-09-04T07:28:57.543Z,3.78
2022-09-04T07:31:35.599Z,4.20
2022-09-04T07:34:21.374Z,3.00
2022-09-04T07:36:51.498Z,3.67
2022-09-04T07:39:41.739Z,3.33
2022-09-04T07:42:25.099Z,4.10
2022-09-04T07:45:01.489Z,3.40
2022-09-04T07:47:40.490Z,3.40
2022-09-04T07:50:21.834Z,3.13
2022-09-04T07:53:11.286Z,3.10
2022-09-04T07:55:47.272Z,3.05
2022-09-04T07:58:14.469Z,2.90
2022-09-04T08:01:00.105Z,3.13
2022-09-04T08:03:54.575Z,3.03
2022-09-04T08:06:22.983Z,2.70
2022-09-04T08:08:53.362Z,2.70
2022-09-04T08:11:38.586Z,2.95
2022-09-04T08:14:24.794Z,2.55
2022-09-04T08:16:58.001Z,2.10
2022-09-04T08:19:43.714Z,2.80
2022-09-04T08:22:13.633Z,2.40
2022-09-04T08:24:43.786Z,2.22
2022-09-04T08:27:10.975Z,2.05
2022-09-04T08:29:47.239Z,2.30
2022-09-04T08:32:14.845Z,2.92
2022-09-04T08:34:46.086Z,3.28
2022-09-04T08:37:13.220Z,2.50
2022-09-04T08:39:51.331Z,2.63
2022-09-04T08:42:18.507Z,1.98
2022-09-04T08:45:07.426Z,2.17
2022-09-04T08:47:40.826Z,1.95
2022-09-04T08:50:27.482Z,2.42
2022-09-04T08:53:05.770Z,1.77
2022-09-04T08:55:46.934Z,2.05
2022-09-04T08:58:16.850Z,2.10
2022-09-04T09:00:56.223Z,1.63
2022-09-04T09:03:42.310Z,1.70
2022-09-04T09:06:13.147Z,1.60
2022-09-04T09:09:09.448Z,2.00
2022-09-04T09:11:51.954Z,2.17
2022-09-04T09:14:25.111Z,2.05
2022-09-04T09:16:52.336Z,1.90
2022-09-04T09:19:20.442Z,2.00
2022-09-04T09:22:06.333Z,2.00
2022-09-04T09:24:52.070Z,1.60
2022-09-04T09:27:22.627Z,1.50
2022-09-04T09:29:55.993Z,1.50
2022-09-04T09:32:28.961Z,1.60
2022-09-04T09:35:01.855Z,1.40
2022-09-04T09:37:44.182Z,1.67
2022-09-04T09:40:11.250Z,1.35
2022-09-04T09:42:48.670Z,1.70
2022-09-04T09:45:35.951Z,1.70
2022-09-04T09:48:11.690Z,1.80
2022-09-04T09:50:47.978Z,1.50
2022-09-04T09:53:47.694Z,1.58
2022-09-04T09:56:14.886Z,1.65
2022-09-04T09:58:48.074Z,1.42
2022-09-04T10:01:33.837Z,1.70
2022-09-04T10:04:11.609Z,1.50
2022-09-04T10:07:06.421Z,1.60
2022-09-04T10:09:34.551Z,1.50
2022-09-04T10:12:20.546Z,1.52
2022-09-04T10:15:06.629Z,1.50
2022-09-04T10:17:52.630Z,1.40
2022-09-04T10:20:54.209Z,1.48
2022-09-04T10:23:27.215Z,1.55
2022-09-04T10:26:14.089Z,1.60
2022-09-04T10:29:00.039Z,1.55
2022-09-04T10:31:27.189Z,1.42
2022-09-04T10:34:03.437Z,1.60
2022-09-04T10:36:42.779Z,1.42
2022-09-04T10:39:31.330Z,1.73
2022-09-04T10:42:02.565Z,2.00
2022-09-04T10:44:38.807Z,1.45
2022-09-04T10:47:17.402Z,1.30
2022-09-04T10:50:07.949Z,1.10
2022-09-04T10:52:43.142Z,1.10
2022-09-04T10:55:18.148Z,1.38
2022-09-04T10:57:45.509Z,1.38
2022-09-04T11:00:13.768Z,1.40
2022-09-04T11:02:53.973Z,1.13
2022-09-04T11:05:29.969Z,1.20
2022-09-04T11:08:16.283Z,1.10
2022-09-04T11:10:43.391Z,1.20
2022-09-04T11:13:14.346Z,1.15
2022-09-04T11:16:02.264Z,0.90
2022-09-04T11:18:38.041Z,0.90
2022-09-04T11:21:17.138Z,0.85
2022-09-04T11:23:44.213Z,0.90
2022-09-04T11:26:26.867Z,0.90
2022-09-04T11:29:00.217Z,1.00
2022-09-04T11:31:56.676Z,0.82
2022-09-04T11:34:33.768Z,1.20
2022-09-04T11:37:24.614Z,1.13
2022-09-04T11:39:51.769Z,1.10
2022-09-04T11:42:31.051Z,1.02
2022-09-04T11:45:16.708Z,0.80
2022-09-04T11:47:50.351Z,1.10
2022-09-04T11:50:24.232Z,1.02
2022-09-04T11:52:51.914Z,1.00
2022-09-04T11:55:28.922Z,0.90
2022-09-04T11:58:15.785Z,1.20
2022-09-04T12:00:42.965Z,0.95
2022-09-04T12:03:13.065Z,0.95
2022-09-04T12:05:55.299Z,0.88
2022-09-04T12:08:41.405Z,1.00
2022-09-04T12:11:20.162Z,0.80
2022-09-04T12:13:54.082Z,1.00
2022-09-04T12:16:27.645Z,1.00
2022-09-04T12:19:13.747Z,0.80
2022-09-04T12:21:48.825Z,0.90
2022-09-04T12:24:25.164Z,0.80
2022-09-04T12:26:55.147Z,0.80
2022-09-04T12:29:39.928Z,0.68
2022-09-04T12:32:22.289Z,1.30
2022-09-04T12:34:55.622Z,0.98
2022-09-04T12:37:22.706Z,1.00
2022-09-04T12:39:52.968Z,0.90
2022-09-04T12:42:20.090Z,0.80
2022-09-04T12:45:07.474Z,0.90
2022-09-04T12:47:41.702Z,1.08
2022-09-04T12:50:16.014Z,0.77
2022-09-04T12:52:49.562Z,0.80
2022-09-04T12:55:24.372Z,1.00
2022-09-04T12:57:55.373Z,0.90
2022-09-04T13:00:23.815Z,0.90
2022-09-04T13:02:53.783Z,1.13
2022-09-04T13:06:04.030Z,0.98
2022-09-04T13:08:40.452Z,0.90
2022-09-04T13:11:07.539Z,1.35
2022-09-04T13:13:54.162Z,1.20
2022-09-04T13:16:24.131Z,1.20
2022-09-04T13:18:51.367Z,1.20
2022-09-04T13:21:25.253Z,0.82
2022-09-04T13:24:01.266Z,1.00
2022-09-04T13:26:42.818Z,0.90
2022-09-04T13:29:25.332Z,1.10
2022-09-04T13:32:01.344Z,1.15
2022-09-04T13:34:34.175Z,0.90
2022-09-04T13:37:16.732Z,1.00
2022-09-04T13:39:54.436Z,1.10
2022-09-04T13:42:24.627Z,1.10
2022-09-04T13:44:57.761Z,0.90
2022-09-04T13:47:32.433Z,0.80
2022-09-04T13:50:08.540Z,1.42
2022-09-04T13:52:55.966Z,1.13
2022-09-04T13:55:23.089Z,1.00
2022-09-04T13:58:10.938Z,0.85
2022-09-04T14:00:41.122Z,0.98
2022-09-04T14:03:13.574Z,1.02
2022-09-04T14:05:41.900Z,0.90
2022-09-04T14:08:14.614Z,0.93
2022-09-04T14:10:55.618Z,0.90
2022-09-04T14:13:37.325Z,0.80
2022-09-04T14:16:08.958Z,1.02
2022-09-04T14:18:45.292Z,1.00
2022-09-04T14:21:12.895Z,1.10
2022-09-04T14:23:48.792Z,1.10
2022-09-04T14:26:21.762Z,0.95
2022-09-04T14:29:21.212Z,0.80
2022-09-04T14:31:50.612Z,1.02
2022-09-04T14:34:19.012Z,0.77
2022-09-04T14:36:59.050Z,1.05
2022-09-04T14:39:43.816Z,1.02
2022-09-04T14:42:16.178Z,0.90
2022-09-04T14:44:46.307Z,0.88
2022-09-04T14:47:13.520Z,1.20
2022-09-04T14:49:47.588Z,1.00
2022-09-04T14:52:19.687Z,0.95
2022-09-04T14:54:47.606Z,1.77
2022-09-04T14:57:30.016Z,1.27
2022-09-04T14:59:57.142Z,1.30
2022-09-04T15:02:30.967Z,1.13
2022-09-04T15:05:03.292Z,1.02
2022-09-04T15:07:36.075Z,0.88
2022-09-04T15:10:10.439Z,1.30
2022-09-04T15:12:39.918Z,0.90
2022-09-04T15:15:07.145Z,1.02
2022-09-04T15:17:37.640Z,1.13
2022-09-04T15:20:16.118Z,0.98
2022-09-04T15:23:07.346Z,1.20
2022-09-04T15:25:57.817Z,1.00
2022-09-04T15:28:25.285Z,1.17
2022-09-04T15:31:18.986Z,1.00
2022-09-04T15:33:47.234Z,1.08
2022-09-04T15:36:20.780Z,1.10
2022-09-04T15:38:59.042Z,1.00
2022-09-04T15:41:35.381Z,1.05
2022-09-04T15:44:10.514Z,0.90
2022-09-04T15:46:43.802Z,1.10
2022-09-04T15:49:11.139Z,1.08
2022-09-04T15:51:46.935Z,0.90
2022-09-04T15:54:28.837Z,1.15
2022-09-04T15:57:06.457Z,0.90
2022-09-04T15:59:40.461Z,1.10
2022-09-04T16:02:12.589Z,0.90
2022-09-04T16:04:46.012Z,0.90
2022-09-04T16:07:20.316Z,0.75
2022-09-04T16:10:04.567Z,1.00
2022-09-04T16:12:39.220Z,1.42
2022-09-04T16:15:16.854Z,1.00
2022-09-04T16:17:45.827Z,1.02
2022-09-04T16:20:50.797Z,1.02
2022-09-04T16:23:19.841Z,1.00
2022-09-04T16:25:49.789Z,1.00
2022-09-04T16:28:19.080Z,1.17
2022-09-04T16:31:00.567Z,0.80
2022-09-04T16:33:37.063Z,0.90
2022-09-04T16:36:04.303Z,1.10
2022-09-04T16:38:42.255Z,0.95
2022-09-04T16:41:14.131Z,1.10
2022-09-04T16:43:50.374Z,1.00
2022-09-04T16:46:23.351Z,1.05
2022-09-04T16:48:54.117Z,1.10
2022-09-04T16:51:39.449Z,1.10
2022-09-04T16:54:08.461Z,1.20
2022-09-04T16:56:45.538Z,0.85
2022-09-04T16:59:18.697Z,1.10
2022-09-04T17:01:48.902Z,0.90
2022-09-04T17:04:30.956Z,0.90
2022-09-04T17:07:02.853Z,0.70
2022-09-04T17:09:42.482Z,1.20
2022-09-04T17:12:28.869Z,0.90
2022-09-04T17:15:14.792Z,1.00
2022-09-04T17:17:42.685Z,1.10
2022-09-04T17:20:11.754Z,1.20
2022-09-04T17:29:01.478Z,1.00
2022-09-04T17:29:13.161Z,1.20
2022-09-04T17:29:14.375Z,1.10
2022-09-04T17:31:52.046Z,1.40
2022-09-04T17:40:36.393Z,1.70
2022-09-04T17:40:53.608Z,1.83
2022-09-04T17:40:56.842Z,1.20
2022-09-04T17:43:22.539Z,1.63
2022-09-04T17:46:09.200Z,1.50
2022-09-04T17:48:46.666Z,1.40
2022-09-04T17:51:18.649Z,1.70
2022-09-04T17:53:51.897Z,1.83
2022-09-04T17:56:39.373Z,1.63
2022-09-04T17:59:13.874Z,1.75
2022-09-04T18:01:52.212Z,1.80
2022-09-04T18:04:26.244Z,1.70
2022-09-04T18:07:50.959Z,1.45
2022-09-04T18:10:09.363Z,1.42
2022-09-04T18:12:42.352Z,1.40
2022-09-04T18:15:33.924Z,1.33
2022-09-04T18:18:14.217Z,1.42
2022-09-04T18:20:51.707Z,1.40
2022-09-04T18:23:25.191Z,1.40
2022-09-04T18:25:56.421Z,1.40
2022-09-04T18:28:27.142Z,1.80
2022-09-04T18:37:07.403Z,1.83
2022-09-04T18:37:16.262Z,1.50
2022-09-04T18:37:26.392Z,1.77
2022-09-04T18:39:49.601Z,1.80
2022-09-04T18:50:33.450Z,1.60
2022-09-04T18:50:40.154Z,2.00
2022-09-04T18:50:51.122Z,1.58
2022-09-04T18:51:25.118Z,1.48
2022-09-04T18:53:57.700Z,1.40
2022-09-04T18:56:28.300Z,2.00
2022-09-04T18:59:01.709Z,1.70
2022-09-04T19:01:28.864Z,2.00
2022-09-04T19:03:57.814Z,1.98
2022-09-04T19:06:43.608Z,1.73
2022-09-04T19:09:17.082Z,2.03
2022-09-04T19:11:48.622Z,1.75
2022-09-04T19:14:20.046Z,1.58
2022-09-04T19:16:47.209Z,1.60
2022-09-04T19:19:24.497Z,1.60
2022-09-04T19:22:06.124Z,1.80
2022-09-04T19:24:39.823Z,1.90
2022-09-04T19:27:26.882Z,1.73
2022-09-04T19:30:03.422Z,1.65
2022-09-04T19:32:49.350Z,1.90
2022-09-04T19:35:19.424Z,1.63
2022-09-04T19:40:16.579Z,1.67
2022-09-04T19:46:05.352Z,1.92
2022-09-04T19:46:16.210Z,1.60
2022-09-04T19:46:28.196Z,2.15
2022-09-04T19:52:36.796Z,1.90
2022-09-04T19:53:33.144Z,2.30
2022-09-04T19:55:25.141Z,2.28
2022-09-04T19:58:01.634Z,1.70
2022-09-04T20:00:42.229Z,2.38
2022-09-04T20:03:38.055Z,1.83
2022-09-04T20:06:20.854Z,1.95
2022-09-04T20:08:55.574Z,2.00
2022-09-04T20:11:36.085Z,2.22
2022-09-04T20:14:14.401Z,2.00
2022-09-04T20:17:05.200Z,2.45
2022-09-04T20:19:41.623Z,2.05
2022-09-04T20:22:14.714Z,2.45
2022-09-04T20:25:01.957Z,2.10
2022-09-04T20:27:29.595Z,2.22
2022-09-04T20:30:04.687Z,2.03
2022-09-04T20:32:34.603Z,2.40
2022-09-04T20:35:14.089Z,1.77
2022-09-04T20:37:46.256Z,2.00
2022-09-04T20:40:35.928Z,1.77
2022-09-04T20:43:03.053Z,1.73
2022-09-04T20:47:55.062Z,1.85
2022-09-04T20:52:55.661Z,1.90
2022-09-04T20:52:59.683Z,2.03
2022-09-04T20:54:29.659Z,1.85
2022-09-04T21:00:16.837Z,2.10
2022-09-04T21:03:12.661Z,1.83
2022-09-04T21:03:22.134Z,2.08
2022-09-04T21:06:07.191Z,2.35
2022-09-04T21:08:54.728Z,2.08
2022-09-04T21:11:41.955Z,2.28
2022-09-04T21:14:09.214Z,1.90
2022-09-04T21:16:45.607Z,2.03
2022-09-04T21:19:29.207Z,2.10
2022-09-04T21:22:21.809Z,2.17
2022-09-04T21:25:18.283Z,1.67
2022-09-04T21:28:04.709Z,2.08
2022-09-04T21:30:53.513Z,1.80
2022-09-04T21:33:27.797Z,1.90
2022-09-04T21:36:25.789Z,1.83
2022-09-04T21:39:08.598Z,1.80
2022-09-04T21:41:50.343Z,1.75
2022-09-04T21:44:26.442Z,1.98
2022-09-04T21:47:08.652Z,1.70
2022-09-04T21:49:55.603Z,2.00
2022-09-04T21:52:25.981Z,1.73
2022-09-04T21:57:17.592Z,1.80
2022-09-04T22:02:27.864Z,1.80
2022-09-04T22:02:49.738Z,1.97
2022-09-04T22:03:56.770Z,1.88
2022-09-04T22:07:44.783Z,1.88
2022-09-04T22:13:34.731Z,1.67
2022-09-04T22:13:40.446Z,2.00
2022-09-04T22:15:17.746Z,1.63
2022-09-04T22:18:10.473Z,1.92
2022-09-04T22:20:56.146Z,1.75
2022-09-04T22:23:43.550Z,1.60
2022-09-04T22:26:26.002Z,2.10
2022-09-04T22:29:11.210Z,1.92
2022-09-04T22:31:50.378Z,1.80
2022-09-04T22:34:32.805Z,1.70
2022-09-04T22:37:15.107Z,1.83
2022-09-04T22:40:00.698Z,1.83
2022-09-04T22:42:44.523Z,1.83
2022-09-04T22:45:17.882Z,1.88
2022-09-04T22:48:03.701Z,1.80
2022-09-04T22:50:50.354Z,1.90
2022-09-04T22:53:36.318Z,1.88
2022-09-04T22:56:24.830Z,1.60
2022-09-04T22:58:53.675Z,1.55
2022-09-04T23:01:31.731Z,1.67
2022-09-04T23:03:58.998Z,1.60
2022-09-04T23:13:41.835Z,1.40
2022-09-04T23:13:57.503Z,1.77
2022-09-04T23:14:00.695Z,1.60
2022-09-04T23:15:48.018Z,1.80
2022-09-04T23:20:11.609Z,1.85
2022-09-04T23:26:41.496Z,1.63
2022-09-04T23:26:42.222Z,1.80
2022-09-04T23:27:34.098Z,2.00
2022-09-04T23:30:05.175Z,1.90
2022-09-04T23:32:45.235Z,2.00
2022-09-04T23:35:31.486Z,2.05
2022-09-04T23:38:15.837Z,2.10
2022-09-04T23:40:46.998Z,1.92
2022-09-04T23:43:29.663Z,1.90
2022-09-04T23:46:18.029Z,1.90
2022-09-04T23:48:58.228Z,1.90
2022-09-04T23:51:40.744Z,2.03
2022-09-04T23:54:24.894Z,1.75
2022-09-04T23:56:58.752Z,2.20
2022-09-04T23:59:36.363Z,2.28
